sensor_id;sensor_type;location;lat;lon;timestamp;P1;durP1;ratioP1;P2;durP2;ratioP2
60730;SDS011;46580;52.114;11.674;2022-10-16T00:00:38;3.60;;;1.10;;
60730;SDS011;46580;52.114;11.674;2022-10-16T00:03:05;1.50;;;1.40;;
60730;SDS011;46580;52.114;11.674;2022-10-16T00:05:32;1.40;;;1.30;;
60730;SDS011;46580;52.114;11.674;2022-10-16T00:07:58;2.03;;;1.40;;
60730;SDS011;46580;52.114;11.674;2022-10-16T00:10:23;1.30;;;1.20;;
60730;SDS011;46580;52.114;11.674;2022-10-16T00:12:49;1.30;;;1.20;;
60730;SDS011;46580;52.114;11.674;2022-10-16T00:15:15;1.77;;;1.47;;
60730;SDS011;46580;52.114;11.674;2022-10-16T00:17:41;1.67;;;1.30;;
60730;SDS011;46580;52.114;11.674;2022-10-16T00:20:06;2.90;;;1.17;;
60730;SDS011;46580;52.114;11.674;2022-10-16T00:22:32;1.73;;;1.30;;
60730;SDS011;46580;52.114;11.674;2022-10-16T00:24:58;1.30;;;1.20;;
60730;SDS011;46580;52.114;11.674;2022-10-16T00:27:23;1.47;;;1.37;;
60730;SDS011;46580;52.114;11.674;2022-10-16T00:29:49;1.43;;;1.33;;
60730;SDS011;46580;52.114;11.674;2022-10-16T00:32:16;1.27;;;1.17;;
60730;SDS011;46580;52.114;11.674;2022-10-16T00:34:42;0.80;;;0.80;;
60730;SDS011;46580;52.114;11.674;2022-10-16T00:37:07;1.27;;;1.17;;
60730;SDS011;46580;52.114;11.674;2022-10-16T00:39:32;1.40;;;1.27;;
60730;SDS011;46580;52.114;11.674;2022-10-16T00:41:58;2.13;;;1.07;;
60730;SDS011;46580;52.114;11.674;2022-10-16T00:47:22;4.30;;;1.20;;
60730;SDS011;46580;52.114;11.674;2022-10-16T00:49:52;1.27;;;0.93;;
60730;SDS011;46580;52.114;11.674;2022-10-16T00:52:21;1.37;;;1.00;;
60730;SDS011;46580;52.114;11.674;2022-10-16T00:54:47;2.60;;;1.00;;
60730;SDS011;46580;52.114;11.674;2022-10-16T00:57:14;1.60;;;1.17;;
60730;SDS011;46580;52.114;11.674;2022-10-16T00:59:40;1.53;;;0.90;;
60730;SDS011;46580;52.114;11.674;2022-10-16T01:02:08;1.10;;;0.90;;
60730;SDS011;46580;52.114;11.674;2022-10-16T01:04:42;1.23;;;0.90;;
60730;SDS011;46580;52.114;11.674;2022-10-16T01:12:48;1.10;;;0.80;;
60730;SDS011;46580;52.114;11.674;2022-10-16T01:18:03;1.07;;;0.90;;
60730;SDS011;46580;52.114;11.674;2022-10-16T01:20:48;0.90;;;0.70;;
60730;SDS011;46580;52.114;11.674;2022-10-16T01:26:09;1.03;;;0.80;;
60730;SDS011;46580;52.114;11.674;2022-10-16T01:29:03;1.63;;;0.80;;
60730;SDS011;46580;52.114;11.674;2022-10-16T01:31:31;1.27;;;1.10;;
60730;SDS011;46580;52.114;11.674;2022-10-16T01:34:03;1.50;;;1.23;;
60730;SDS011;46580;52.114;11.674;2022-10-16T01:36:37;2.67;;;1.30;;
60730;SDS011;46580;52.114;11.674;2022-10-16T01:39:06;1.80;;;1.30;;
60730;SDS011;46580;52.114;11.674;2022-10-16T01:41:36;1.87;;;1.00;;
60730;SDS011;46580;52.114;11.674;2022-10-16T01:44:09;1.23;;;1.10;;
60730;SDS011;46580;52.114;11.674;2022-10-16T01:46:41;1.30;;;1.13;;
60730;SDS011;46580;52.114;11.674;2022-10-16T01:49:08;2.50;;;1.47;;
60730;SDS011;46580;52.114;11.674;2022-10-16T01:51:35;3.97;;;1.27;;
60730;SDS011;46580;52.114;11.674;2022-10-16T01:54:02;1.53;;;1.43;;
60730;SDS011;46580;52.114;11.674;2022-10-16T01:56:30;2.23;;;1.50;;
60730;SDS011;46580;52.114;11.674;2022-10-16T01:58:58;2.63;;;1.30;;
60730;SDS011;46580;52.114;11.674;2022-10-16T02:01:26;1.40;;;1.20;;
60730;SDS011;46580;52.114;11.674;2022-10-16T02:03:57;4.10;;;1.53;;
60730;SDS011;46580;52.114;11.674;2022-10-16T02:06:26;1.73;;;1.50;;
60730;SDS011;46580;52.114;11.674;2022-10-16T02:08:51;1.77;;;1.60;;
60730;SDS011;46580;52.114;11.674;2022-10-16T02:11:18;3.07;;;1.50;;
60730;SDS011;46580;52.114;11.674;2022-10-16T02:13:45;1.80;;;1.50;;
60730;SDS011;46580;52.114;11.674;2022-10-16T02:16:13;2.30;;;1.53;;
60730;SDS011;46580;52.114;11.674;2022-10-16T02:18:39;2.00;;;1.57;;
60730;SDS011;46580;52.114;11.674;2022-10-16T02:24:04;2.37;;;1.80;;
60730;SDS011;46580;52.114;11.674;2022-10-16T02:26:44;2.40;;;1.60;;
60730;SDS011;46580;52.114;11.674;2022-10-16T02:29:16;3.43;;;1.90;;
60730;SDS011;46580;52.114;11.674;2022-10-16T02:31:46;2.93;;;1.60;;
60730;SDS011;46580;52.114;11.674;2022-10-16T02:34:16;3.23;;;1.93;;
60730;SDS011;46580;52.114;11.674;2022-10-16T02:36:43;5.27;;;1.60;;
60730;SDS011;46580;52.114;11.674;2022-10-16T02:39:10;2.63;;;1.40;;
60730;SDS011;46580;52.114;11.674;2022-10-16T02:41:36;3.10;;;1.50;;
60730;SDS011;46580;52.114;11.674;2022-10-16T02:44:01;2.93;;;1.53;;
60730;SDS011;46580;52.114;11.674;2022-10-16T02:46:27;2.37;;;1.40;;
60730;SDS011;46580;52.114;11.674;2022-10-16T02:48:52;2.30;;;1.53;;
60730;SDS011;46580;52.114;11.674;2022-10-16T02:51:18;2.63;;;1.20;;
60730;SDS011;46580;52.114;11.674;2022-10-16T02:53:43;3.23;;;1.53;;
60730;SDS011;46580;52.114;11.674;2022-10-16T02:56:08;3.87;;;1.73;;
60730;SDS011;46580;52.114;11.674;2022-10-16T02:58:34;3.43;;;1.37;;
60730;SDS011;46580;52.114;11.674;2022-10-16T03:00:59;2.03;;;1.57;;
60730;SDS011;46580;52.114;11.674;2022-10-16T03:03:24;5.83;;;1.60;;
60730;SDS011;46580;52.114;11.674;2022-10-16T03:05:50;2.37;;;1.47;;
60730;SDS011;46580;52.114;11.674;2022-10-16T03:08:15;2.90;;;1.50;;
60730;SDS011;46580;52.114;11.674;2022-10-16T03:10:41;2.63;;;1.50;;
60730;SDS011;46580;52.114;11.674;2022-10-16T03:13:06;2.93;;;1.63;;
60730;SDS011;46580;52.114;11.674;2022-10-16T03:15:31;1.90;;;1.30;;
60730;SDS011;46580;52.114;11.674;2022-10-16T03:17:57;1.90;;;1.40;;
60730;SDS011;46580;52.114;11.674;2022-10-16T03:20:24;2.00;;;1.23;;
60730;SDS011;46580;52.114;11.674;2022-10-16T03:22:49;2.33;;;1.37;;
60730;SDS011;46580;52.114;11.674;2022-10-16T03:25:14;2.53;;;1.47;;
60730;SDS011;46580;52.114;11.674;2022-10-16T03:27:40;2.00;;;1.60;;
60730;SDS011;46580;52.114;11.674;2022-10-16T03:30:05;2.10;;;1.27;;
60730;SDS011;46580;52.114;11.674;2022-10-16T03:32:31;1.70;;;1.33;;
60730;SDS011;46580;52.114;11.674;2022-10-16T03:34:57;3.53;;;1.90;;
60730;SDS011;46580;52.114;11.674;2022-10-16T03:37:22;2.13;;;1.47;;
60730;SDS011;46580;52.114;11.674;2022-10-16T03:39:48;2.77;;;1.70;;
60730;SDS011;46580;52.114;11.674;2022-10-16T03:42:13;1.73;;;1.33;;
60730;SDS011;46580;52.114;11.674;2022-10-16T03:44:38;1.90;;;1.50;;
60730;SDS011;46580;52.114;11.674;2022-10-16T03:47:04;2.10;;;1.50;;
60730;SDS011;46580;52.114;11.674;2022-10-16T03:49:29;2.17;;;1.50;;
60730;SDS011;46580;52.114;11.674;2022-10-16T03:51:54;1.83;;;1.43;;
60730;SDS011;46580;52.114;11.674;2022-10-16T03:54:20;2.47;;;1.67;;
60730;SDS011;46580;52.114;11.674;2022-10-16T03:56:47;1.50;;;1.37;;
60730;SDS011;46580;52.114;11.674;2022-10-16T03:59:12;2.07;;;1.30;;
60730;SDS011;46580;52.114;11.674;2022-10-16T04:01:37;2.03;;;1.30;;
60730;SDS011;46580;52.114;11.674;2022-10-16T04:04:03;1.70;;;1.37;;
60730;SDS011;46580;52.114;11.674;2022-10-16T04:06:28;2.30;;;1.27;;
60730;SDS011;46580;52.114;11.674;2022-10-16T04:08:53;2.10;;;1.43;;
60730;SDS011;46580;52.114;11.674;2022-10-16T04:11:19;1.30;;;1.07;;
60730;SDS011;46580;52.114;11.674;2022-10-16T04:13:44;2.57;;;1.30;;
60730;SDS011;46580;52.114;11.674;2022-10-16T04:16:09;1.80;;;1.20;;
60730;SDS011;46580;52.114;11.674;2022-10-16T04:18:35;1.73;;;1.10;;
60730;SDS011;46580;52.114;11.674;2022-10-16T04:21:04;2.67;;;1.50;;
60730;SDS011;46580;52.114;11.674;2022-10-16T04:23:30;1.97;;;1.30;;
60730;SDS011;46580;52.114;11.674;2022-10-16T04:25:56;3.00;;;1.50;;
60730;SDS011;46580;52.114;11.674;2022-10-16T04:28:21;1.47;;;1.10;;
60730;SDS011;46580;52.114;11.674;2022-10-16T04:30:47;1.60;;;1.43;;
60730;SDS011;46580;52.114;11.674;2022-10-16T04:33:12;1.23;;;1.07;;
60730;SDS011;46580;52.114;11.674;2022-10-16T04:35:57;4.83;;;1.53;;
60730;SDS011;46580;52.114;11.674;2022-10-16T04:38:23;3.07;;;1.60;;
60730;SDS011;46580;52.114;11.674;2022-10-16T04:40:48;1.97;;;1.30;;
60730;SDS011;46580;52.114;11.674;2022-10-16T04:43:14;1.60;;;1.40;;
60730;SDS011;46580;52.114;11.674;2022-10-16T04:45:39;1.33;;;1.20;;
60730;SDS011;46580;52.114;11.674;2022-10-16T04:48:04;2.17;;;1.40;;
60730;SDS011;46580;52.114;11.674;2022-10-16T04:50:30;1.40;;;1.30;;
60730;SDS011;46580;52.114;11.674;2022-10-16T04:52:55;1.80;;;1.43;;
60730;SDS011;46580;52.114;11.674;2022-10-16T04:55:20;2.33;;;1.30;;
60730;SDS011;46580;52.114;11.674;2022-10-16T04:57:46;1.40;;;1.30;;
60730;SDS011;46580;52.114;11.674;2022-10-16T05:00:11;1.97;;;1.40;;
60730;SDS011;46580;52.114;11.674;2022-10-16T05:02:37;1.50;;;1.20;;
60730;SDS011;46580;52.114;11.674;2022-10-16T05:05:03;3.53;;;1.20;;
60730;SDS011;46580;52.114;11.674;2022-10-16T05:07:28;1.87;;;1.40;;
60730;SDS011;46580;52.114;11.674;2022-10-16T05:09:54;1.03;;;0.90;;
60730;SDS011;46580;52.114;11.674;2022-10-16T05:12:25;1.60;;;1.33;;
60730;SDS011;46580;52.114;11.674;2022-10-16T05:14:50;1.70;;;1.30;;
60730;SDS011;46580;52.114;11.674;2022-10-16T05:17:16;1.73;;;1.27;;
60730;SDS011;46580;52.114;11.674;2022-10-16T05:19:41;3.43;;;1.30;;
60730;SDS011;46580;52.114;11.674;2022-10-16T05:22:06;2.20;;;1.40;;
60730;SDS011;46580;52.114;11.674;2022-10-16T05:24:32;1.50;;;1.40;;
60730;SDS011;46580;52.114;11.674;2022-10-16T05:26:58;1.97;;;1.60;;
60730;SDS011;46580;52.114;11.674;2022-10-16T05:29:23;3.37;;;1.30;;
60730;SDS011;46580;52.114;11.674;2022-10-16T05:31:52;3.73;;;1.40;;
60730;SDS011;46580;52.114;11.674;2022-10-16T05:34:18;3.63;;;1.57;;
60730;SDS011;46580;52.114;11.674;2022-10-16T05:36:44;1.30;;;1.20;;
60730;SDS011;46580;52.114;11.674;2022-10-16T05:39:10;3.60;;;1.67;;
60730;SDS011;46580;52.114;11.674;2022-10-16T05:41:36;1.40;;;1.30;;
60730;SDS011;46580;52.114;11.674;2022-10-16T05:44:04;3.30;;;1.60;;
60730;SDS011;46580;52.114;11.674;2022-10-16T05:46:30;1.43;;;1.33;;
60730;SDS011;46580;52.114;11.674;2022-10-16T05:48:56;1.87;;;1.17;;
60730;SDS011;46580;52.114;11.674;2022-10-16T05:51:21;2.80;;;1.20;;
60730;SDS011;46580;52.114;11.674;2022-10-16T05:53:47;1.70;;;1.30;;
60730;SDS011;46580;52.114;11.674;2022-10-16T05:56:12;1.83;;;1.37;;
60730;SDS011;46580;52.114;11.674;2022-10-16T05:58:38;4.10;;;2.20;;
60730;SDS011;46580;52.114;11.674;2022-10-16T06:01:12;3.33;;;1.60;;
60730;SDS011;46580;52.114;11.674;2022-10-16T06:03:40;3.70;;;1.43;;
60730;SDS011;46580;52.114;11.674;2022-10-16T06:06:12;1.67;;;1.53;;
60730;SDS011;46580;52.114;11.674;2022-10-16T06:08:39;1.73;;;1.50;;
60730;SDS011;46580;52.114;11.674;2022-10-16T06:11:06;2.50;;;1.77;;
60730;SDS011;46580;52.114;11.674;2022-10-16T06:13:33;4.53;;;1.97;;
60730;SDS011;46580;52.114;11.674;2022-10-16T06:15:59;5.20;;;1.87;;
60730;SDS011;46580;52.114;11.674;2022-10-16T06:18:25;3.23;;;2.10;;
60730;SDS011;46580;52.114;11.674;2022-10-16T06:20:52;2.20;;;2.00;;
60730;SDS011;46580;52.114;11.674;2022-10-16T06:23:18;4.73;;;2.00;;
60730;SDS011;46580;52.114;11.674;2022-10-16T06:25:44;2.87;;;1.90;;
60730;SDS011;46580;52.114;11.674;2022-10-16T06:28:09;2.60;;;2.10;;
60730;SDS011;46580;52.114;11.674;2022-10-16T06:30:34;3.13;;;2.13;;
60730;SDS011;46580;52.114;11.674;2022-10-16T06:33:00;3.97;;;2.10;;
60730;SDS011;46580;52.114;11.674;2022-10-16T06:35:25;5.23;;;3.13;;
60730;SDS011;46580;52.114;11.674;2022-10-16T06:37:52;5.73;;;2.90;;
60730;SDS011;46580;52.114;11.674;2022-10-16T06:40:18;3.87;;;2.67;;
60730;SDS011;46580;52.114;11.674;2022-10-16T06:42:43;4.43;;;2.93;;
60730;SDS011;46580;52.114;11.674;2022-10-16T06:45:09;8.60;;;3.17;;
60730;SDS011;46580;52.114;11.674;2022-10-16T06:47:34;5.70;;;3.10;;
60730;SDS011;46580;52.114;11.674;2022-10-16T06:50:00;3.50;;;2.67;;
60730;SDS011;46580;52.114;11.674;2022-10-16T06:52:27;4.27;;;3.33;;
60730;SDS011;46580;52.114;11.674;2022-10-16T06:54:53;5.20;;;3.53;;
60730;SDS011;46580;52.114;11.674;2022-10-16T06:57:18;5.53;;;3.30;;
60730;SDS011;46580;52.114;11.674;2022-10-16T06:59:43;2.80;;;2.20;;
60730;SDS011;46580;52.114;11.674;2022-10-16T07:02:09;3.57;;;2.47;;
60730;SDS011;46580;52.114;11.674;2022-10-16T07:04:35;3.53;;;2.10;;
60730;SDS011;46580;52.114;11.674;2022-10-16T07:07:00;3.03;;;2.27;;
60730;SDS011;46580;52.114;11.674;2022-10-16T07:09:26;3.03;;;1.80;;
60730;SDS011;46580;52.114;11.674;2022-10-16T07:11:51;1.90;;;1.70;;
60730;SDS011;46580;52.114;11.674;2022-10-16T07:14:17;1.70;;;1.60;;
60730;SDS011;46580;52.114;11.674;2022-10-16T07:16:43;5.20;;;1.70;;
60730;SDS011;46580;52.114;11.674;2022-10-16T07:19:09;2.37;;;1.70;;
60730;SDS011;46580;52.114;11.674;2022-10-16T07:21:37;4.80;;;1.90;;
60730;SDS011;46580;52.114;11.674;2022-10-16T07:24:04;1.33;;;1.20;;
60730;SDS011;46580;52.114;11.674;2022-10-16T07:26:32;1.83;;;1.37;;
60730;SDS011;46580;52.114;11.674;2022-10-16T07:28:59;3.60;;;1.23;;
60730;SDS011;46580;52.114;11.674;2022-10-16T07:31:25;1.80;;;1.40;;
60730;SDS011;46580;52.114;11.674;2022-10-16T07:33:51;1.67;;;1.40;;
60730;SDS011;46580;52.114;11.674;2022-10-16T07:36:17;2.50;;;1.47;;
60730;SDS011;46580;52.114;11.674;2022-10-16T07:38:44;3.27;;;1.40;;
60730;SDS011;46580;52.114;11.674;2022-10-16T07:41:11;2.87;;;2.20;;
60730;SDS011;46580;52.114;11.674;2022-10-16T07:43:38;2.27;;;1.43;;
60730;SDS011;46580;52.114;11.674;2022-10-16T07:46:04;1.83;;;1.50;;
60730;SDS011;46580;52.114;11.674;2022-10-16T07:48:31;2.03;;;1.60;;
60730;SDS011;46580;52.114;11.674;2022-10-16T07:50:58;4.33;;;1.80;;
60730;SDS011;46580;52.114;11.674;2022-10-16T07:53:25;3.67;;;1.70;;
60730;SDS011;46580;52.114;11.674;2022-10-16T07:55:50;2.03;;;1.67;;
60730;SDS011;46580;52.114;11.674;2022-10-16T07:58:16;4.83;;;1.50;;
60730;SDS011;46580;52.114;11.674;2022-10-16T08:00:41;3.73;;;1.43;;
60730;SDS011;46580;52.114;11.674;2022-10-16T08:03:07;3.03;;;1.93;;
60730;SDS011;46580;52.114;11.674;2022-10-16T08:05:33;3.70;;;2.10;;
60730;SDS011;46580;52.114;11.674;2022-10-16T08:07:59;2.33;;;1.83;;
60730;SDS011;46580;52.114;11.674;2022-10-16T08:10:27;2.50;;;2.30;;
60730;SDS011;46580;52.114;11.674;2022-10-16T08:12:53;3.33;;;2.13;;
60730;SDS011;46580;52.114;11.674;2022-10-16T08:15:18;3.53;;;2.27;;
60730;SDS011;46580;52.114;11.674;2022-10-16T08:17:44;5.33;;;2.43;;
60730;SDS011;46580;52.114;11.674;2022-10-16T08:20:18;5.97;;;2.67;;
60730;SDS011;46580;52.114;11.674;2022-10-16T08:22:43;2.40;;;2.20;;
60730;SDS011;46580;52.114;11.674;2022-10-16T08:25:09;4.20;;;2.37;;
60730;SDS011;46580;52.114;11.674;2022-10-16T08:27:35;4.73;;;2.33;;
60730;SDS011;46580;52.114;11.674;2022-10-16T08:30:00;2.57;;;2.10;;
60730;SDS011;46580;52.114;11.674;2022-10-16T08:32:25;4.83;;;1.70;;
60730;SDS011;46580;52.114;11.674;2022-10-16T08:34:51;3.27;;;1.80;;
60730;SDS011;46580;52.114;11.674;2022-10-16T08:37:16;2.60;;;1.23;;
60730;SDS011;46580;52.114;11.674;2022-10-16T08:39:41;1.20;;;1.10;;
60730;SDS011;46580;52.114;11.674;2022-10-16T08:48:00;1.43;;;1.10;;
60730;SDS011;46580;52.114;11.674;2022-10-16T08:50:26;1.10;;;0.87;;
60730;SDS011;46580;52.114;11.674;2022-10-16T08:52:53;2.93;;;1.17;;
60730;SDS011;46580;52.114;11.674;2022-10-16T08:57:45;1.67;;;1.00;;
60730;SDS011;46580;52.114;11.674;2022-10-16T09:00:14;2.33;;;1.00;;
60730;SDS011;46580;52.114;11.674;2022-10-16T09:02:51;1.60;;;0.90;;
60730;SDS011;46580;52.114;11.674;2022-10-16T09:05:30;1.80;;;1.10;;
60730;SDS011;46580;52.114;11.674;2022-10-16T09:10:56;2.33;;;0.80;;
60730;SDS011;46580;52.114;11.674;2022-10-16T09:13:29;3.30;;;1.20;;
60730;SDS011;46580;52.114;11.674;2022-10-16T09:16:23;3.67;;;1.17;;
60730;SDS011;46580;52.114;11.674;2022-10-16T09:21:44;1.00;;;0.67;;
60730;SDS011;46580;52.114;11.674;2022-10-16T09:24:15;1.97;;;0.57;;
60730;SDS011;46580;52.114;11.674;2022-10-16T09:26:42;1.60;;;0.50;;
60730;SDS011;46580;52.114;11.674;2022-10-16T09:29:12;2.47;;;0.60;;
60730;SDS011;46580;52.114;11.674;2022-10-16T09:31:38;0.73;;;0.50;;
60730;SDS011;46580;52.114;11.674;2022-10-16T09:34:04;0.50;;;0.50;;
60730;SDS011;46580;52.114;11.674;2022-10-16T09:36:36;1.03;;;0.40;;
60730;SDS011;46580;52.114;11.674;2022-10-16T09:39:07;3.13;;;0.70;;
60730;SDS011;46580;52.114;11.674;2022-10-16T09:41:35;1.27;;;0.50;;
60730;SDS011;46580;52.114;11.674;2022-10-16T09:44:02;0.30;;;0.30;;
60730;SDS011;46580;52.114;11.674;2022-10-16T09:46:33;0.50;;;0.50;;
60730;SDS011;46580;52.114;11.674;2022-10-16T09:49:01;0.30;;;0.30;;
60730;SDS011;46580;52.114;11.674;2022-10-16T09:53:58;0.67;;;0.50;;
60730;SDS011;46580;52.114;11.674;2022-10-16T09:56:28;0.90;;;0.30;;
60730;SDS011;46580;52.114;11.674;2022-10-16T09:58:57;0.70;;;0.57;;
60730;SDS011;46580;52.114;11.674;2022-10-16T10:01:46;1.20;;;0.37;;
60730;SDS011;46580;52.114;11.674;2022-10-16T10:04:12;2.80;;;0.40;;
60730;SDS011;46580;52.114;11.674;2022-10-16T10:06:43;0.90;;;0.50;;
60730;SDS011;46580;52.114;11.674;2022-10-16T10:09:21;2.27;;;1.00;;
60730;SDS011;46580;52.114;11.674;2022-10-16T10:14:30;2.70;;;0.40;;
60730;SDS011;46580;52.114;11.674;2022-10-16T10:19:30;1.40;;;0.40;;
60730;SDS011;46580;52.114;11.674;2022-10-16T10:22:13;3.10;;;0.60;;
60730;SDS011;46580;52.114;11.674;2022-10-16T10:24:42;1.00;;;0.87;;
60730;SDS011;46580;52.114;11.674;2022-10-16T10:27:11;3.80;;;0.50;;
60730;SDS011;46580;52.114;11.674;2022-10-16T10:32:26;0.90;;;0.50;;
60730;SDS011;46580;52.114;11.674;2022-10-16T10:35:14;3.40;;;0.43;;
60730;SDS011;46580;52.114;11.674;2022-10-16T10:38:00;0.97;;;0.40;;
60730;SDS011;46580;52.114;11.674;2022-10-16T10:40:45;1.97;;;0.37;;
60730;SDS011;46580;52.114;11.674;2022-10-16T10:43:44;0.67;;;0.40;;
60730;SDS011;46580;52.114;11.674;2022-10-16T10:46:19;1.90;;;0.40;;
60730;SDS011;46580;52.114;11.674;2022-10-16T10:54:51;0.27;;;0.27;;
60730;SDS011;46580;52.114;11.674;2022-10-16T10:57:28;1.50;;;0.50;;
60730;SDS011;46580;52.114;11.674;2022-10-16T11:08:19;0.30;;;0.30;;
60730;SDS011;46580;52.114;11.674;2022-10-16T11:11:09;3.40;;;0.50;;
60730;SDS011;46580;52.114;11.674;2022-10-16T11:16:25;0.47;;;0.30;;
60730;SDS011;46580;52.114;11.674;2022-10-16T11:19:01;0.40;;;0.40;;
60730;SDS011;46580;52.114;11.674;2022-10-16T11:21:36;1.10;;;0.57;;
60730;SDS011;46580;52.114;11.674;2022-10-16T11:26:46;0.83;;;0.20;;
60730;SDS011;46580;52.114;11.674;2022-10-16T11:29:18;0.20;;;0.20;;
60730;SDS011;46580;52.114;11.674;2022-10-16T11:31:49;2.30;;;0.30;;
60730;SDS011;46580;52.114;11.674;2022-10-16T11:39:20;2.37;;;0.40;;
60730;SDS011;46580;52.114;11.674;2022-10-16T11:41:49;0.97;;;0.40;;
60730;SDS011;46580;52.114;11.674;2022-10-16T11:55:52;0.90;;;0.40;;
60730;SDS011;46580;52.114;11.674;2022-10-16T12:06:21;3.60;;;0.50;;
60730;SDS011;46580;52.114;11.674;2022-10-16T12:08:52;2.33;;;0.30;;
60730;SDS011;46580;52.114;11.674;2022-10-16T12:16:37;0.50;;;0.30;;
60730;SDS011;46580;52.114;11.674;2022-10-16T12:19:11;0.60;;;0.30;;
60730;SDS011;46580;52.114;11.674;2022-10-16T12:21:39;2.13;;;0.43;;
60730;SDS011;46580;52.114;11.674;2022-10-16T12:24:04;0.40;;;0.20;;
60730;SDS011;46580;52.114;11.674;2022-10-16T12:26:36;2.33;;;0.53;;
60730;SDS011;46580;52.114;11.674;2022-10-16T12:29:14;0.70;;;0.30;;
60730;SDS011;46580;52.114;11.674;2022-10-16T12:31:48;0.53;;;0.40;;
60730;SDS011;46580;52.114;11.674;2022-10-16T12:34:28;0.20;;;0.20;;
60730;SDS011;46580;52.114;11.674;2022-10-16T12:37:07;1.13;;;0.47;;
60730;SDS011;46580;52.114;11.674;2022-10-16T12:39:35;2.40;;;0.30;;
60730;SDS011;46580;52.114;11.674;2022-10-16T12:42:05;0.30;;;0.10;;
60730;SDS011;46580;52.114;11.674;2022-10-16T12:44:45;0.20;;;0.20;;
60730;SDS011;46580;52.114;11.674;2022-10-16T12:49:54;0.67;;;0.33;;
60730;SDS011;46580;52.114;11.674;2022-10-16T12:52:27;1.47;;;0.30;;
60730;SDS011;46580;52.114;11.674;2022-10-16T12:55:00;2.67;;;0.40;;
60730;SDS011;46580;52.114;11.674;2022-10-16T13:27:55;1.13;;;0.20;;
60730;SDS011;46580;52.114;11.674;2022-10-16T13:35:27;1.27;;;0.40;;
60730;SDS011;46580;52.114;11.674;2022-10-16T13:38:05;0.60;;;0.30;;
60730;SDS011;46580;52.114;11.674;2022-10-16T13:43:32;1.13;;;0.20;;
60730;SDS011;46580;52.114;11.674;2022-10-16T13:46:01;1.70;;;0.30;;
60730;SDS011;46580;52.114;11.674;2022-10-16T13:48:28;1.10;;;0.20;;
60730;SDS011;46580;52.114;11.674;2022-10-16T13:51:02;0.73;;;0.20;;
60730;SDS011;46580;52.114;11.674;2022-10-16T13:53:33;1.30;;;0.30;;
60730;SDS011;46580;52.114;11.674;2022-10-16T13:55:59;0.57;;;0.20;;
60730;SDS011;46580;52.114;11.674;2022-10-16T13:58:26;1.27;;;0.20;;
60730;SDS011;46580;52.114;11.674;2022-10-16T14:00:59;1.17;;;0.20;;
60730;SDS011;46580;52.114;11.674;2022-10-16T14:03:26;1.07;;;0.20;;
60730;SDS011;46580;52.114;11.674;2022-10-16T14:06:00;0.67;;;0.30;;
60730;SDS011;46580;52.114;11.674;2022-10-16T14:08:27;3.53;;;0.30;;
60730;SDS011;46580;52.114;11.674;2022-10-16T14:10:55;1.77;;;0.20;;
60730;SDS011;46580;52.114;11.674;2022-10-16T14:16:15;0.80;;;0.23;;
60730;SDS011;46580;52.114;11.674;2022-10-16T14:18:44;1.93;;;0.33;;
60730;SDS011;46580;52.114;11.674;2022-10-16T14:21:12;0.77;;;0.40;;
60730;SDS011;46580;52.114;11.674;2022-10-16T14:23:40;0.70;;;0.40;;
60730;SDS011;46580;52.114;11.674;2022-10-16T14:28:36;0.30;;;0.10;;
60730;SDS011;46580;52.114;11.674;2022-10-16T14:31:16;0.57;;;0.20;;
60730;SDS011;46580;52.114;11.674;2022-10-16T14:33:50;1.33;;;0.30;;
60730;SDS011;46580;52.114;11.674;2022-10-16T14:36:16;0.20;;;0.20;;
60730;SDS011;46580;52.114;11.674;2022-10-16T14:38:55;1.00;;;0.30;;
60730;SDS011;46580;52.114;11.674;2022-10-16T14:41:27;0.37;;;0.20;;
60730;SDS011;46580;52.114;11.674;2022-10-16T14:43:56;0.57;;;0.40;;
60730;SDS011;46580;52.114;11.674;2022-10-16T14:46:43;0.43;;;0.30;;
60730;SDS011;46580;52.114;11.674;2022-10-16T14:51:38;0.40;;;0.23;;
60730;SDS011;46580;52.114;11.674;2022-10-16T14:54:10;0.30;;;0.10;;
60730;SDS011;46580;52.114;11.674;2022-10-16T14:56:53;2.20;;;0.60;;
60730;SDS011;46580;52.114;11.674;2022-10-16T14:59:28;0.20;;;0.10;;
60730;SDS011;46580;52.114;11.674;2022-10-16T15:02:20;2.10;;;0.20;;
60730;SDS011;46580;52.114;11.674;2022-10-16T15:04:49;0.47;;;0.20;;
60730;SDS011;46580;52.114;11.674;2022-10-16T15:07:18;0.43;;;0.20;;
60730;SDS011;46580;52.114;11.674;2022-10-16T15:09:44;1.50;;;0.40;;
60730;SDS011;46580;52.114;11.674;2022-10-16T15:12:09;0.70;;;0.30;;
60730;SDS011;46580;52.114;11.674;2022-10-16T15:14:36;0.80;;;0.30;;
60730;SDS011;46580;52.114;11.674;2022-10-16T15:17:03;1.03;;;0.30;;
60730;SDS011;46580;52.114;11.674;2022-10-16T15:19:30;1.63;;;0.30;;
60730;SDS011;46580;52.114;11.674;2022-10-16T15:21:56;1.40;;;0.40;;
60730;SDS011;46580;52.114;11.674;2022-10-16T15:24:25;2.53;;;0.20;;
60730;SDS011;46580;52.114;11.674;2022-10-16T15:26:53;0.43;;;0.33;;
60730;SDS011;46580;52.114;11.674;2022-10-16T15:29:20;0.83;;;0.30;;
60730;SDS011;46580;52.114;11.674;2022-10-16T15:31:46;0.57;;;0.30;;
60730;SDS011;46580;52.114;11.674;2022-10-16T15:34:13;0.73;;;0.33;;
60730;SDS011;46580;52.114;11.674;2022-10-16T15:36:40;2.67;;;0.90;;
60730;SDS011;46580;52.114;11.674;2022-10-16T15:39:16;0.93;;;0.50;;
60730;SDS011;46580;52.114;11.674;2022-10-16T15:41:44;0.80;;;0.50;;
60730;SDS011;46580;52.114;11.674;2022-10-16T15:44:17;5.03;;;0.60;;
60730;SDS011;46580;52.114;11.674;2022-10-16T15:46:43;1.53;;;0.50;;
60730;SDS011;46580;52.114;11.674;2022-10-16T15:49:09;0.53;;;0.40;;
60730;SDS011;46580;52.114;11.674;2022-10-16T15:51:40;1.27;;;0.50;;
60730;SDS011;46580;52.114;11.674;2022-10-16T15:54:07;3.57;;;0.43;;
60730;SDS011;46580;52.114;11.674;2022-10-16T15:56:33;0.97;;;0.40;;
60730;SDS011;46580;52.114;11.674;2022-10-16T15:59:02;0.83;;;0.30;;
60730;SDS011;46580;52.114;11.674;2022-10-16T16:01:31;1.30;;;0.37;;
60730;SDS011;46580;52.114;11.674;2022-10-16T16:03:58;1.27;;;0.43;;
60730;SDS011;46580;52.114;11.674;2022-10-16T16:06:24;1.23;;;0.20;;
60730;SDS011;46580;52.114;11.674;2022-10-16T16:08:50;1.00;;;0.40;;
60730;SDS011;46580;52.114;11.674;2022-10-16T16:11:18;1.87;;;0.43;;
60730;SDS011;46580;52.114;11.674;2022-10-16T16:13:44;0.77;;;0.50;;
60730;SDS011;46580;52.114;11.674;2022-10-16T16:16:14;3.50;;;0.80;;
60730;SDS011;46580;52.114;11.674;2022-10-16T16:18:41;0.97;;;0.50;;
60730;SDS011;46580;52.114;11.674;2022-10-16T16:21:07;1.30;;;0.70;;
60730;SDS011;46580;52.114;11.674;2022-10-16T16:23:36;1.87;;;0.80;;
60730;SDS011;46580;52.114;11.674;2022-10-16T16:26:05;0.87;;;0.70;;
60730;SDS011;46580;52.114;11.674;2022-10-16T16:28:33;1.33;;;0.50;;
60730;SDS011;46580;52.114;11.674;2022-10-16T16:30:59;2.67;;;0.90;;
60730;SDS011;46580;52.114;11.674;2022-10-16T16:33:26;4.63;;;0.77;;
60730;SDS011;46580;52.114;11.674;2022-10-16T16:35:55;4.10;;;0.73;;
60730;SDS011;46580;52.114;11.674;2022-10-16T16:38:21;2.37;;;0.70;;
60730;SDS011;46580;52.114;11.674;2022-10-16T16:40:46;2.30;;;0.80;;
60730;SDS011;46580;52.114;11.674;2022-10-16T16:43:12;2.53;;;1.90;;
60730;SDS011;46580;52.114;11.674;2022-10-16T16:45:37;8.00;;;5.53;;
60730;SDS011;46580;52.114;11.674;2022-10-16T16:48:02;4.40;;;3.30;;
60730;SDS011;46580;52.114;11.674;2022-10-16T16:50:28;3.70;;;1.87;;
60730;SDS011;46580;52.114;11.674;2022-10-16T16:52:53;2.70;;;1.40;;
60730;SDS011;46580;52.114;11.674;2022-10-16T16:55:19;2.80;;;1.63;;
60730;SDS011;46580;52.114;11.674;2022-10-16T16:57:44;5.37;;;1.97;;
60730;SDS011;46580;52.114;11.674;2022-10-16T17:00:13;2.67;;;1.80;;